Accueil
METAR-TAF:

METAR-TAF

Aéroports :

Midway, États-Unis

latitude: 28-13N, longitude: 177-22W, altitude: 4 m

METAR: absent

Heure: 16:13 (02:13 UTC)

Prévision

Le bulletin a été fait il y a 2 heures et 35 minutes, à 23:38 UTC
Prévision valable du 23 à 00 UTC au 23 à 24 UTC
Vent 12 kt de est avec des rafales jusqu'à 20 kt
Visibilité: 10 km
Nuages épars à une hauteur de 2500 ft
Nuages fragmentés à une hauteur de 4000 ft
Nuages fragmentés à une hauteur de 10000 ft

TAF: PMDY 222338Z 2300/2324 10012G20KT P6SM SCT025 BKN040 BKN100 AMD NOT SKED

Observations et prévisions météorologiques de plus de 4000 aéroports (messages METAR et TAF).

Les stations disponibles sont représentées par des disques jaunes et rouges sur la carte.

Passer la souris dessus pour voir le nom de la station.

Cliquer dessus pour voir les observations et prévisions météorologiques.

Pour changer de carte: cliquez sur les boutons verts avec une croix noire pour zoomer, sur le bouton vert avec un tiret pour effectuer un zoom arrière, ou sur les flèches vertes pour les cartes adjacentes.


METAR-TAF: